Long Island Mac Arthur Airport
KISP : now visible

Airfield :











YOU CAN JOIN US ON...

 
LOGIN :

Register | Disclaimer

   EN    FR    IT 

 









Legend :    VFR   Marginal VFR   IFR   Intensive IFR   Very Intensive IFR
Visi :
Ceiling :
>= 8 km
>= 3000ft
5 to 8 km
1000 to 3000 ft
1500m to 5 km
500 to 1000 ft
800 to 1500m
200 to 500 ft
< 800m
< 200 ft
Symbols :   Thunderstorms  Fog  Heavy snow  Heavy precipitations  Wind > 20 kt






- Airport Elevation : 99 ft
- IATA code : ISP


KISP - Long Island Mac Arthur

CURRENT METAR :
  • 280956Z AUTO 26013KT 10SM CLR 11/08 A2948 RMK AO2 SLP981 T01110083

EXPIRED METARs :
  • 280856Z AUTO 25010KT 10SM CLR 11/08 A2947 RMK AO2 SLP979 T01110083 51018
  • 280756Z AUTO 26011KT 10SM CLR 12/07 A2947 RMK AO2 SLP978 T01170072

TAF KISP
Valid from the 28 at 09:00 until the 29 at 06:00 UTC


280834Z 2809/2906 25010KT P6SM SCT150
FM281200 28012KT P6SM SCT150
FM281600 32014G26KT P6SM BKN050
FM282300 33011KT P6SM FEW050
FM290300 35007KT P6SM SKC
KZBW FIR / North America



MET'MAP, your aeronautical weather chart ! - Copyright ORBIFLY December 2007 - Disclaimer

ORBIFLY MET'MAP TEAM :

Programming & Development : Alexandra Zaïnal
Original concept : Baudouin d'Aumeries
Technical & hardware support : Manuel Goepfert
Assistance : Marc-Olivier Méhu




SOURCES & CREDITS :

   NOAA       Earth
Advisory